You are listening to:
YPPH Approach #1 - Perth, Western Australia, Australia

YPPH 060900Z 12007KT 9999 FEW039 16/07 Q1022

If stream doesn't start automatically press the play button
If stream stops then reload player then press play